createdAt,value
2023-02-27T00:00:55.239Z,102017.38
2023-02-27T00:03:21.901Z,102049.88
2023-02-27T00:05:48.821Z,102032.75
2023-02-27T00:08:15.365Z,101969.47
2023-02-27T00:10:41.880Z,101916.84
2023-02-27T00:13:08.379Z,101934.06
2023-02-27T00:15:34.791Z,101895.69
2023-02-27T00:18:01.339Z,101894.13
2023-02-27T00:20:28.462Z,102009.53
2023-02-27T00:22:54.841Z,101935.72
2023-02-27T00:25:21.296Z,102070.66
2023-02-27T00:27:47.742Z,101989.81
2023-02-27T00:30:15.719Z,102063.81
2023-02-27T00:32:42.986Z,102066.50
2023-02-27T00:35:11.635Z,102056.03
2023-02-27T00:37:38.623Z,102005.13
2023-02-27T00:40:06.266Z,102031.72
2023-02-27T00:42:32.821Z,101963.59
2023-02-27T00:44:59.280Z,102015.41
2023-02-27T00:47:25.688Z,101997.63
2023-02-27T00:49:52.470Z,102016.34
2023-02-27T00:52:18.941Z,101902.47
2023-02-27T00:54:45.410Z,101888.25
2023-02-27T00:57:11.801Z,101875.00
2023-02-27T00:59:38.275Z,102052.97
2023-02-27T01:02:04.801Z,102007.66
2023-02-27T01:04:31.217Z,102051.34
2023-02-27T01:06:57.595Z,101899.66
2023-02-27T01:09:24.964Z,101831.91
2023-02-27T01:11:52.436Z,102032.19
2023-02-27T01:14:19.389Z,101877.38
2023-02-27T01:16:45.939Z,101844.13
2023-02-27T01:19:12.490Z,101897.25
2023-02-27T01:21:41.931Z,101941.78
2023-02-27T01:24:09.610Z,101839.16
2023-02-27T01:26:36.330Z,101942.41
2023-02-27T01:29:06.267Z,102050.41
2023-02-27T01:31:33.238Z,102048.81
2023-02-27T01:33:59.790Z,102034.56
2023-02-27T01:36:26.303Z,102005.91
2023-02-27T01:38:52.805Z,101820.91
2023-02-27T01:41:19.229Z,101916.31
2023-02-27T01:44:01.218Z,102047.38
2023-02-27T01:46:29.426Z,101870.34
2023-02-27T01:49:00.242Z,102044.75
2023-02-27T01:51:32.295Z,102044.25
2023-02-27T01:53:59.589Z,102043.19
2023-02-27T01:56:29.882Z,101909.31
2023-02-27T01:59:03.909Z,102015.09
2023-02-27T02:01:31.806Z,102047.31
2023-02-27T02:04:25.178Z,102032.88
2023-02-27T02:06:58.095Z,101869.22
2023-02-27T02:09:26.112Z,101961.50
2023-02-27T02:11:53.180Z,102042.53
2023-02-27T02:14:19.734Z,102051.34
2023-02-27T02:17:05.460Z,102052.47
2023-02-27T02:19:46.678Z,102049.75
2023-02-27T02:22:47.037Z,102056.13
2023-02-27T02:25:28.638Z,102013.66
2023-02-27T02:28:10.406Z,102056.66
2023-02-27T02:30:58.050Z,102056.13
2023-02-27T02:34:01.616Z,102055.91
2023-02-27T02:36:39.070Z,101919.75
2023-02-27T02:39:32.667Z,102036.34
2023-02-27T02:42:11.562Z,102036.66
2023-02-27T02:44:57.251Z,101971.94
2023-02-27T02:47:33.972Z,101903.47
2023-02-27T02:50:13.831Z,101781.91
2023-02-27T02:52:59.057Z,101916.75
2023-02-27T02:55:47.313Z,101981.28
2023-02-27T02:58:27.688Z,102006.06
2023-02-27T03:01:10.615Z,102003.66
2023-02-27T03:03:43.220Z,102042.72
2023-02-27T03:06:17.013Z,102015.50
2023-02-27T03:08:50.036Z,102044.16
2023-02-27T03:11:16.561Z,101910.84
2023-02-27T03:13:55.516Z,102025.50
2023-02-27T03:16:25.869Z,102028.00
2023-02-27T03:19:07.968Z,102041.44
2023-02-27T03:21:55.874Z,101932.94
2023-02-27T03:24:45.216Z,101890.13
2023-02-27T03:27:11.960Z,101959.38
2023-02-27T03:29:56.844Z,102069.50
2023-02-27T03:32:31.192Z,101883.66
2023-02-27T03:34:57.824Z,102071.81
2023-02-27T03:37:41.085Z,102079.84
2023-02-27T03:40:20.273Z,102079.50
2023-02-27T03:42:54.848Z,101809.19
2023-02-27T03:45:40.159Z,102083.22
2023-02-27T03:48:07.739Z,102045.22
2023-02-27T03:50:38.438Z,102086.75
2023-02-27T03:53:11.208Z,102073.50
2023-02-27T03:55:42.486Z,101908.41
2023-02-27T03:58:09.238Z,102067.97
2023-02-27T04:00:35.700Z,101906.16
2023-02-27T04:03:02.586Z,102106.34
2023-02-27T04:05:29.662Z,102079.22
2023-02-27T04:08:31.910Z,102088.88
2023-02-27T04:11:31.415Z,102078.84
2023-02-27T04:14:03.856Z,102093.75
2023-02-27T04:16:45.888Z,102076.97
2023-02-27T04:19:27.376Z,102096.50
2023-02-27T04:22:11.928Z,102080.06
2023-02-27T04:24:52.202Z,102083.19
2023-02-27T04:27:29.995Z,102050.72
2023-02-27T04:30:06.285Z,102046.34
2023-02-27T04:32:42.731Z,101850.50
2023-02-27T04:35:17.621Z,102043.59
2023-02-27T04:37:50.747Z,101978.59
2023-02-27T04:40:24.781Z,102106.84
2023-02-27T04:42:56.618Z,101951.00
2023-02-27T04:45:27.175Z,102052.03
2023-02-27T04:48:08.514Z,101899.38
2023-02-27T04:51:02.258Z,101860.09
2023-02-27T04:53:37.340Z,101982.50
2023-02-27T04:56:19.242Z,101982.38
2023-02-27T04:58:57.199Z,102062.72
2023-02-27T05:01:36.377Z,101958.59
2023-02-27T05:04:06.395Z,102127.97
2023-02-27T05:06:36.120Z,101981.97
2023-02-27T05:09:16.029Z,102007.94
2023-02-27T05:12:07.358Z,102044.03
2023-02-27T05:14:41.833Z,102114.69
2023-02-27T05:17:28.829Z,101965.75
2023-02-27T05:19:55.908Z,102103.69
2023-02-27T05:22:35.222Z,102125.13
2023-02-27T05:25:40.380Z,102125.91
2023-02-27T05:28:15.855Z,101998.88
2023-02-27T05:30:58.745Z,102129.63
2023-02-27T05:33:35.833Z,102136.66
2023-02-27T05:36:11.537Z,102001.09
2023-02-27T05:38:42.558Z,102111.81
2023-02-27T05:41:15.860Z,102031.22
2023-02-27T05:43:53.742Z,102099.34
2023-02-27T05:46:24.635Z,102079.94
2023-02-27T05:48:57.936Z,102132.69
2023-02-27T05:51:28.787Z,102122.03
2023-02-27T05:54:02.256Z,102085.56
2023-02-27T05:56:33.071Z,102047.94
2023-02-27T05:59:23.510Z,102072.81
2023-02-27T06:01:52.913Z,101965.44
2023-02-27T06:04:19.992Z,102036.47
2023-02-27T06:06:47.656Z,101978.25
2023-02-27T06:09:14.137Z,102033.53
2023-02-27T06:11:40.646Z,102013.72
2023-02-27T06:14:07.056Z,102011.94
2023-02-27T06:16:38.014Z,102164.38
2023-02-27T06:19:05.864Z,102172.69
2023-02-27T06:21:32.608Z,102161.25
2023-02-27T06:23:59.006Z,101973.44
2023-02-27T06:26:25.893Z,102070.69
2023-02-27T06:28:52.518Z,102190.88
2023-02-27T06:31:19.021Z,102155.41
2023-02-27T06:33:45.386Z,102028.47
2023-02-27T06:36:11.810Z,102089.19
2023-02-27T06:38:38.271Z,102068.72
2023-02-27T06:41:04.869Z,102172.25
2023-02-27T06:43:34.622Z,102159.53
2023-02-27T06:46:01.083Z,102144.50
2023-02-27T06:48:27.518Z,102178.63
2023-02-27T06:50:56.137Z,102169.84
2023-02-27T06:53:24.248Z,102188.50
2023-02-27T06:55:50.843Z,102178.75
2023-02-27T06:58:17.853Z,102161.03
2023-02-27T07:00:44.314Z,102167.69
2023-02-27T07:03:10.771Z,102092.53
2023-02-27T07:05:37.193Z,102089.41
2023-02-27T07:08:03.947Z,102101.34
2023-02-27T07:10:30.877Z,102192.63
2023-02-27T07:12:57.225Z,102187.44
2023-02-27T07:15:24.472Z,102214.28
2023-02-27T07:17:51.179Z,102206.72
2023-02-27T07:20:20.091Z,101948.34
2023-02-27T07:22:46.693Z,102017.78
2023-02-27T07:25:13.127Z,102217.97
2023-02-27T07:27:39.566Z,102137.53
2023-02-27T07:30:09.503Z,102159.78
2023-02-27T07:32:37.423Z,102134.31
2023-02-27T07:35:04.074Z,102241.59
2023-02-27T07:37:30.413Z,102234.66
2023-02-27T07:39:56.762Z,102211.81
2023-02-27T07:42:25.466Z,102224.09
2023-02-27T07:44:57.104Z,102147.34
2023-02-27T07:47:23.556Z,102020.13
2023-02-27T07:49:49.923Z,102236.41
2023-02-27T07:52:16.281Z,102222.84
2023-02-27T07:54:42.714Z,102237.28
2023-02-27T07:57:09.160Z,102223.19
2023-02-27T07:59:35.544Z,102206.41
2023-02-27T08:02:01.941Z,102161.50
2023-02-27T08:04:28.321Z,102140.47
2023-02-27T08:06:54.668Z,102216.97
2023-02-27T08:09:23.508Z,102216.84
2023-02-27T08:11:49.953Z,102252.84
2023-02-27T08:14:16.312Z,102171.34
2023-02-27T08:16:42.668Z,102179.66
2023-02-27T08:19:10.135Z,102219.84
2023-02-27T08:21:36.460Z,102197.16
2023-02-27T08:24:02.990Z,102154.84
2023-02-27T08:26:31.199Z,102242.31
2023-02-27T08:28:57.726Z,102214.28
2023-02-27T08:31:24.532Z,102128.38
2023-02-27T08:33:58.111Z,102209.13
2023-02-27T08:36:34.236Z,102237.91
2023-02-27T08:39:00.666Z,102239.56
2023-02-27T08:41:27.136Z,102112.56
2023-02-27T08:43:53.686Z,102216.91
2023-02-27T08:46:20.116Z,102142.28
2023-02-27T08:48:46.490Z,102220.81
2023-02-27T08:51:12.841Z,102249.06
2023-02-27T08:53:39.259Z,102191.47
2023-02-27T08:56:05.991Z,102139.56
2023-02-27T08:58:32.595Z,102133.84
2023-02-27T09:00:59.052Z,102112.38
2023-02-27T09:03:28.638Z,102166.22
2023-02-27T09:05:56.081Z,102011.69
2023-02-27T09:08:23.365Z,102157.34
2023-02-27T09:10:49.817Z,102123.38
2023-02-27T09:13:30.764Z,102240.97
2023-02-27T09:15:57.439Z,102240.56
2023-02-27T09:18:23.904Z,102157.97
2023-02-27T09:20:53.616Z,102280.31
2023-02-27T09:23:20.095Z,102183.84
2023-02-27T09:25:47.422Z,102224.16
2023-02-27T09:28:13.955Z,102206.47
2023-02-27T09:30:40.354Z,102176.25
2023-02-27T09:33:06.838Z,102160.28
2023-02-27T09:35:33.408Z,102103.38
2023-02-27T09:37:59.859Z,102177.84
2023-02-27T09:40:29.516Z,102175.97
2023-02-27T09:43:18.730Z,102180.81
2023-02-27T09:45:51.647Z,102286.41
2023-02-27T09:48:45.668Z,102184.06
2023-02-27T09:51:18.469Z,102284.47
2023-02-27T09:53:51.237Z,102127.56
2023-02-27T09:56:39.796Z,102157.91
2023-02-27T09:59:31.477Z,102158.44
2023-02-27T10:02:35.580Z,102263.06
2023-02-27T10:05:33.202Z,102268.25
2023-02-27T10:08:28.828Z,102240.00
2023-02-27T10:11:08.502Z,102263.66
2023-02-27T10:13:53.020Z,102205.16
2023-02-27T10:16:22.577Z,102259.22
2023-02-27T10:19:06.269Z,102218.09
2023-02-27T10:21:40.895Z,102183.63
2023-02-27T10:24:29.281Z,102259.50
2023-02-27T10:26:57.613Z,102120.63
2023-02-27T10:29:31.250Z,102232.66
2023-02-27T10:32:03.713Z,102260.72
2023-02-27T10:34:32.699Z,102240.34
2023-02-27T10:37:01.922Z,102233.03
2023-02-27T10:39:30.029Z,102253.09
2023-02-27T10:42:05.355Z,102136.19
2023-02-27T10:44:33.257Z,102246.69
2023-02-27T10:46:59.699Z,102103.09
2023-02-27T10:49:26.621Z,102228.06
2023-02-27T10:52:14.436Z,102209.56
2023-02-27T10:54:42.301Z,102233.81
2023-02-27T10:57:33.398Z,102222.91
2023-02-27T11:00:09.304Z,102135.97
2023-02-27T11:02:38.983Z,102196.50
2023-02-27T11:05:17.638Z,102216.34
2023-02-27T11:07:44.415Z,102069.69
2023-02-27T11:10:12.510Z,102225.19
2023-02-27T11:12:43.391Z,102213.97
2023-02-27T11:15:33.689Z,102226.59
2023-02-27T11:18:20.548Z,102230.59
2023-02-27T11:20:50.636Z,102138.06
2023-02-27T11:23:20.687Z,102171.13
2023-02-27T11:25:48.187Z,102201.69
2023-02-27T11:28:30.655Z,102200.13
2023-02-27T11:31:07.667Z,102221.78
2023-02-27T11:33:39.195Z,102079.16
2023-02-27T11:36:06.104Z,102167.06
2023-02-27T11:38:34.649Z,102215.03
2023-02-27T11:41:04.210Z,102200.34
2023-02-27T11:43:36.843Z,102196.63
2023-02-27T11:46:46.181Z,102177.09
2023-02-27T11:49:20.608Z,102133.59
2023-02-27T11:52:04.387Z,102192.13
2023-02-27T11:54:40.998Z,102108.28
2023-02-27T11:57:19.510Z,102172.63
2023-02-27T12:00:01.489Z,102128.59
2023-02-27T12:03:05.009Z,102176.75
2023-02-27T12:05:38.975Z,102153.13
2023-02-27T12:08:18.059Z,102178.34
2023-02-27T12:11:13.029Z,102126.94
2023-02-27T12:13:46.201Z,102127.75
2023-02-27T12:16:40.283Z,102161.09
2023-02-27T12:19:20.680Z,102122.66
2023-02-27T12:21:51.567Z,102105.50
2023-02-27T12:24:43.945Z,102123.59
2023-02-27T12:27:22.060Z,102153.31
2023-02-27T12:29:54.686Z,102029.25
2023-02-27T12:32:28.767Z,102138.03
2023-02-27T12:35:02.092Z,102142.84
2023-02-27T12:37:30.620Z,102140.41
2023-02-27T12:40:00.492Z,102137.44
2023-02-27T12:42:39.076Z,102137.31
2023-02-27T12:45:26.815Z,102150.44
2023-02-27T12:48:02.947Z,102106.50
2023-02-27T12:51:02.792Z,102135.13
2023-02-27T12:53:44.492Z,102104.22
2023-02-27T12:56:21.221Z,102106.50
2023-02-27T12:59:06.769Z,102084.34
2023-02-27T13:01:58.469Z,102082.22
2023-02-27T13:04:56.353Z,102091.63
2023-02-27T13:07:37.085Z,101997.31
2023-02-27T13:10:13.481Z,101984.91
2023-02-27T13:12:51.375Z,102078.16
2023-02-27T13:15:30.710Z,102029.00
2023-02-27T13:18:04.786Z,101948.03
2023-02-27T13:20:34.810Z,102015.69
2023-02-27T13:23:09.561Z,102031.34
2023-02-27T13:25:43.734Z,101991.06
2023-02-27T13:28:16.864Z,101942.38
2023-02-27T13:30:48.430Z,101983.09
2023-02-27T13:33:47.623Z,102099.69
2023-02-27T13:36:39.018Z,102040.38
2023-02-27T13:39:43.845Z,102103.53
2023-02-27T13:42:25.392Z,102111.38
2023-02-27T13:44:52.901Z,102065.50
2023-02-27T13:47:39.780Z,102108.38
2023-02-27T13:50:18.493Z,102104.91
2023-02-27T13:52:46.755Z,102033.28
2023-02-27T13:55:36.934Z,101961.75
2023-02-27T13:58:05.513Z,102086.56
2023-02-27T14:00:34.367Z,101954.72
2023-02-27T14:03:07.744Z,101964.00
2023-02-27T14:05:38.137Z,101943.53
2023-02-27T14:08:20.369Z,101937.97
2023-02-27T14:11:12.693Z,102098.44
2023-02-27T14:13:45.151Z,102101.28
2023-02-27T14:16:32.889Z,101939.72
2023-02-27T14:19:01.283Z,102104.16
2023-02-27T14:22:01.068Z,102055.47
2023-02-27T14:24:38.199Z,102081.19
2023-02-27T14:27:15.348Z,101946.75
2023-02-27T14:29:45.251Z,101995.13
2023-02-27T14:32:47.700Z,101842.69
2023-02-27T14:35:16.210Z,102038.50
2023-02-27T14:37:43.029Z,101978.31
2023-02-27T14:40:29.227Z,102022.84
2023-02-27T14:43:02.327Z,102073.47
2023-02-27T14:45:30.873Z,102040.28
2023-02-27T14:47:58.213Z,102089.16
2023-02-27T14:50:33.904Z,102096.16
2023-02-27T14:53:05.572Z,102007.13
2023-02-27T14:55:38.320Z,102086.56
2023-02-27T14:58:07.710Z,102097.91
2023-02-27T15:00:34.075Z,102089.16
2023-02-27T15:03:07.043Z,102010.53
2023-02-27T15:05:35.134Z,102106.63
2023-02-27T15:08:01.722Z,102084.78
2023-02-27T15:10:33.431Z,102022.72
2023-02-27T15:13:02.859Z,102006.16
2023-02-27T15:15:29.823Z,102110.94
2023-02-27T15:17:56.485Z,102052.47
2023-02-27T15:20:30.737Z,101842.88
2023-02-27T15:23:24.127Z,102097.91
2023-02-27T15:25:55.323Z,102014.88
2023-02-27T15:28:38.191Z,101958.06
2023-02-27T15:31:09.910Z,102094.22
2023-02-27T15:33:36.857Z,101977.19
2023-02-27T15:36:06.607Z,101939.63
2023-02-27T15:38:38.357Z,102113.34
2023-02-27T15:41:05.567Z,102074.63
2023-02-27T15:43:35.400Z,102086.97
2023-02-27T15:46:02.265Z,102138.53
2023-02-27T15:48:29.891Z,101993.59
2023-02-27T15:51:05.089Z,102045.97
2023-02-27T15:53:33.973Z,102050.19
2023-02-27T15:56:13.010Z,102027.44
2023-02-27T15:58:53.861Z,102079.25
2023-02-27T16:01:29.527Z,101989.28
2023-02-27T16:04:02.720Z,102014.72
2023-02-27T16:06:33.229Z,101965.84
2023-02-27T16:09:05.522Z,102054.84
2023-02-27T16:11:37.300Z,101922.91
2023-02-27T16:14:06.122Z,101991.03
2023-02-27T16:16:38.492Z,102005.81
2023-02-27T16:19:26.858Z,101973.50
2023-02-27T16:22:23.495Z,102029.31
2023-02-27T16:24:50.735Z,102016.75
2023-02-27T16:27:25.776Z,102137.44
2023-02-27T16:29:55.188Z,102136.50
2023-02-27T16:32:26.601Z,102139.06
2023-02-27T16:35:07.819Z,102088.38
2023-02-27T16:37:38.449Z,101920.34
2023-02-27T16:40:23.599Z,102097.00
2023-02-27T16:42:51.388Z,102145.94
2023-02-27T16:45:24.447Z,102133.78
2023-02-27T16:47:54.028Z,102140.66
2023-02-27T16:50:28.632Z,102147.34
2023-02-27T16:52:55.215Z,102108.00
2023-02-27T16:55:21.882Z,102098.50
2023-02-27T16:57:48.243Z,101957.53
2023-02-27T17:00:16.259Z,102152.53
2023-02-27T17:02:44.437Z,102068.44
2023-02-27T17:05:11.146Z,101903.94
2023-02-27T17:07:37.800Z,102135.34
2023-02-27T17:10:04.575Z,102154.69
2023-02-27T17:12:33.478Z,102096.09
2023-02-27T17:15:00.041Z,102009.50
2023-02-27T17:17:26.431Z,102076.72
2023-02-27T17:19:52.820Z,102049.66
2023-02-27T17:22:19.270Z,102042.53
2023-02-27T17:24:45.696Z,102032.59
2023-02-27T17:27:12.063Z,102126.84
2023-02-27T17:29:38.946Z,102059.63
2023-02-27T17:32:06.342Z,102175.88
2023-02-27T17:34:32.827Z,102058.69
2023-02-27T17:36:59.231Z,102114.72
2023-02-27T17:39:25.740Z,102100.75
2023-02-27T17:41:53.137Z,102106.47
2023-02-27T17:44:19.589Z,102080.38
2023-02-27T17:46:45.967Z,102210.78
2023-02-27T17:49:12.360Z,102076.50
2023-02-27T17:51:38.831Z,102209.47
2023-02-27T17:54:06.257Z,101987.94
2023-02-27T17:56:35.044Z,102064.69
2023-02-27T17:59:03.179Z,102154.69
2023-02-27T18:01:29.681Z,102141.75
2023-02-27T18:03:56.520Z,102146.63
2023-02-27T18:06:24.017Z,102223.78
2023-02-27T18:08:51.094Z,102086.09
2023-02-27T18:11:20.240Z,102149.84
2023-02-27T18:13:47.493Z,102151.47
2023-02-27T18:16:14.381Z,102119.00
2023-02-27T18:18:42.648Z,102144.28
2023-02-27T18:21:15.404Z,102238.34
2023-02-27T18:23:42.283Z,102126.94
2023-02-27T18:26:27.250Z,102209.34
2023-02-27T18:28:56.595Z,102109.56
2023-02-27T18:31:26.138Z,102140.16
2023-02-27T18:33:52.904Z,102227.59
2023-02-27T18:36:19.686Z,102134.72
2023-02-27T18:38:46.693Z,101992.75
2023-02-27T18:41:14.250Z,102226.44
2023-02-27T18:43:41.913Z,102239.56
2023-02-27T18:46:09.083Z,102170.94
2023-02-27T18:48:35.829Z,102094.50
2023-02-27T18:51:05.402Z,102190.88
2023-02-27T18:53:37.168Z,102053.19
2023-02-27T18:56:07.180Z,102093.13
2023-02-27T18:58:34.463Z,102150.16
2023-02-27T19:01:01.163Z,102125.38
2023-02-27T19:03:27.831Z,102031.94
2023-02-27T19:05:54.555Z,102053.59
2023-02-27T19:08:21.166Z,102228.78
2023-02-27T19:10:47.577Z,102072.63
2023-02-27T19:13:13.962Z,102117.97
2023-02-27T19:15:40.495Z,102136.28
2023-02-27T19:18:07.063Z,102238.88
2023-02-27T19:20:34.750Z,102243.22
2023-02-27T19:23:01.154Z,102163.38
2023-02-27T19:25:27.540Z,102133.31
2023-02-27T19:27:55.186Z,102192.84
2023-02-27T19:30:21.795Z,102094.34
2023-02-27T19:32:48.286Z,102109.88
2023-02-27T19:35:15.267Z,102183.38
2023-02-27T19:37:42.356Z,102242.13
2023-02-27T19:40:10.589Z,102151.56
2023-02-27T19:42:37.046Z,102213.34
2023-02-27T19:45:03.630Z,102212.94
2023-02-27T19:47:30.016Z,102203.84
2023-02-27T19:49:56.479Z,102144.28
2023-02-27T19:52:22.835Z,102188.03
2023-02-27T19:54:49.365Z,102200.47
2023-02-27T19:57:15.874Z,102167.88
2023-02-27T19:59:42.372Z,102061.69
2023-02-27T20:02:10.996Z,102071.44
2023-02-27T20:04:37.434Z,102098.38
2023-02-27T20:07:05.867Z,101987.84
2023-02-27T20:09:33.690Z,102205.88
2023-02-27T20:12:01.434Z,102182.25
2023-02-27T20:14:28.584Z,102141.66
2023-02-27T20:16:55.448Z,102185.63
2023-02-27T20:19:23.405Z,102220.00
2023-02-27T20:21:51.804Z,102221.41
2023-02-27T20:24:18.875Z,102123.63
2023-02-27T20:26:48.591Z,102216.56
2023-02-27T20:29:18.457Z,102135.06
2023-02-27T20:31:47.471Z,102243.63
2023-02-27T20:34:16.800Z,102243.41
2023-02-27T20:36:43.728Z,102073.47
2023-02-27T20:39:11.763Z,102226.88
2023-02-27T20:41:40.134Z,101976.47
2023-02-27T20:44:11.462Z,102221.78
2023-02-27T20:46:40.603Z,102123.91
2023-02-27T20:49:07.882Z,102242.75
2023-02-27T20:51:38.105Z,102098.25
2023-02-27T20:54:08.354Z,102057.47
2023-02-27T20:56:41.199Z,102208.28
2023-02-27T20:59:10.321Z,102016.88
2023-02-27T21:01:38.454Z,102127.13
2023-02-27T21:04:05.269Z,102208.03
2023-02-27T21:06:32.142Z,102098.25
2023-02-27T21:09:02.505Z,102243.94
2023-02-27T21:11:30.695Z,102241.38
2023-02-27T21:13:59.775Z,102152.34
2023-02-27T21:16:26.342Z,102136.22
2023-02-27T21:18:56.323Z,102124.91
2023-02-27T21:21:29.228Z,102190.94
2023-02-27T21:23:56.151Z,102188.25
2023-02-27T21:26:26.226Z,102144.13
2023-02-27T21:29:01.176Z,102223.19
2023-02-27T21:31:31.241Z,102238.06
2023-02-27T21:34:00.237Z,102119.38
2023-02-27T21:36:35.670Z,102009.84
2023-02-27T21:39:06.020Z,102092.25
2023-02-27T21:41:34.532Z,102229.81
2023-02-27T21:44:02.490Z,102222.63
2023-02-27T21:46:29.432Z,102178.66
2023-02-27T21:48:56.272Z,102150.38
2023-02-27T21:51:38.376Z,102113.22
2023-02-27T21:54:06.632Z,102134.50
2023-02-27T21:56:33.007Z,102183.81
2023-02-27T21:59:01.641Z,102113.56
2023-02-27T22:01:29.256Z,102139.00
2023-02-27T22:03:56.371Z,102160.16
2023-02-27T22:06:25.364Z,102044.50
2023-02-27T22:08:56.094Z,102243.69
2023-02-27T22:11:23.742Z,102205.03
2023-02-27T22:13:50.269Z,102132.94
2023-02-27T22:16:16.929Z,102083.63
2023-02-27T22:18:43.295Z,102119.88
2023-02-27T22:21:18.259Z,102098.13
2023-02-27T22:23:46.093Z,102181.44
2023-02-27T22:26:24.175Z,102245.69
2023-02-27T22:28:52.216Z,102180.06
2023-02-27T22:31:31.270Z,102245.66
2023-02-27T22:34:43.934Z,102246.41
2023-02-27T22:37:10.349Z,102097.91
2023-02-27T22:39:36.833Z,102105.75
2023-02-27T22:42:03.411Z,102199.75
2023-02-27T22:44:29.830Z,102204.72
2023-02-27T22:46:56.362Z,102161.84
2023-02-27T22:49:23.633Z,102046.56
2023-02-27T22:51:51.920Z,102119.19
2023-02-27T22:54:20.631Z,102200.03
2023-02-27T22:56:49.576Z,102214.25
2023-02-27T22:59:16.616Z,102117.72
2023-02-27T23:01:43.118Z,102127.66
2023-02-27T23:04:11.240Z,102262.13
2023-02-27T23:06:39.919Z,102137.25
2023-02-27T23:09:10.131Z,102181.88
2023-02-27T23:11:36.703Z,102269.50
2023-02-27T23:14:03.133Z,102180.91
2023-02-27T23:16:29.646Z,102186.81
2023-02-27T23:18:57.970Z,102284.84
2023-02-27T23:21:34.155Z,102175.31
2023-02-27T23:24:04.594Z,102254.34
2023-02-27T23:26:31.011Z,102246.13
2023-02-27T23:28:57.704Z,102252.91
2023-02-27T23:31:24.233Z,102273.81
2023-02-27T23:33:50.644Z,102237.78
2023-02-27T23:36:17.690Z,102194.50
2023-02-27T23:38:46.414Z,102209.06
2023-02-27T23:41:17.145Z,102281.13
2023-02-27T23:43:44.677Z,102163.88
2023-02-27T23:46:13.979Z,102291.63
2023-02-27T23:48:40.863Z,102164.66
2023-02-27T23:51:08.805Z,102280.00
2023-02-27T23:53:37.474Z,102138.41
2023-02-27T23:56:18.660Z,102299.78
2023-02-27T23:58:46.098Z,102161.06
